Kasagimaru — JJ3905 — position and weather

sailwx.info

Track history (hours):
 
Tides and Currents Weather Stations Pressure Air Temp Water Temp Dewpoint Dewpoint Depression Visibility Wind Speed Wind Dir Waves Ship Positions

Kasagimaru

Last reported at 2016-Feb-10 14:24 UTC. Time now 2016-Feb-10 17:45 UTC.
Position N 34°33' E 135°27'.

Length 42 m; draft 3.5 m.

Type: Tug. MMSI: 431300268.

Date/timePositionNaut miles runAvg speedWind from/ knotsBaromVisibWave heightAir tempDewpointWater temp
2016-Feb-10 14:24N 34°33' E 135°27'0 0.0
2016-Feb-10 12:33N 34°33' E 135°27'0 0.0
2016-Feb-10 11:33N 34°33' E 135°27'0 0.0
2016-Feb-10 10:34N 34°33' E 135°27'0 0.0
2016-Feb-10 08:15N 34°33' E 135°27'0 0.0
2016-Feb-10 07:30N 34°33' E 135°27'0 0.1
2016-Feb-10 06:28N 34°33' E 135°27'4 4.0
2016-Feb-10 05:28N 34°37' E 135°24'5 1.6
2016-Feb-10 02:07N 34°31' E 135°24'0 0.0
2016-Feb-10 01:23N 34°31' E 135°24'0 0.0
2016-Feb-10 00:31N 34°31' E 135°24'0 0.0
2016-Feb-09 23:21N 34°31' E 135°24'0 0.6
2016-Feb-09 22:33N 34°32' E 135°24'1 1.4
2016-Feb-09 21:33N 34°32' E 135°23'2 0.1
2016-Feb-09 04:19N 34°33' E 135°24'1011.8
2016-Feb-09 03:30N 34°26' E 135°17'1212.2
2016-Feb-09 02:29N 34°19' E 135°04'4 0.2
2016-Feb-08 05:33N 34°22' E 135°00'1515.0
2016-Feb-08 04:33N 34°31' E 135°15'9 8.8
2016-Feb-08 03:33N 34°33' E 135°25'1 0.9
2016-Feb-08 02:06N 34°33' E 135°27'0 0.0
2016-Feb-08 01:33N 34°33' E 135°27'0 0.0
2016-Feb-08 00:32N 34°33' E 135°27'0 0.0
2016-Feb-07 23:33N 34°33' E 135°27'0 0.0
2016-Feb-07 22:33N 34°33' E 135°27'0 0.0
2016-Feb-07 21:33N 34°33' E 135°27'0 0.0
2016-Feb-07 20:33N 34°33' E 135°27'0 0.0
2016-Feb-07 19:33N 34°33' E 135°27'0 0.0
2016-Feb-07 18:33N 34°33' E 135°27'0 0.0
2016-Feb-07 17:33N 34°33' E 135°27'0 0.0
2016-Feb-07 16:33N 34°33' E 135°27'0 0.0
2016-Feb-07 15:33N 34°33' E 135°27'0 0.0
2016-Feb-07 14:33N 34°33' E 135°27'0 0.0
2016-Feb-07 13:31N 34°33' E 135°27'0 0.0
2016-Feb-07 12:33N 34°33' E 135°27'0 0.0
2016-Feb-07 11:33N 34°33' E 135°27'0 0.0
2016-Feb-07 10:33N 34°33' E 135°27'0 0.0
2016-Feb-07 08:21N 34°33' E 135°27'5 6.7
2016-Feb-07 07:33N 34°38' E 135°23'3 2.6
2016-Feb-07 06:33N 34°39' E 135°26'3 2.7
2016-Feb-07 05:30N 34°37' E 135°23'4 1.8
2016-Feb-07 03:10N 34°33' E 135°25'1 1.4
2016-Feb-07 02:32N 34°33' E 135°24'6 6.2
2016-Feb-07 01:33N 34°32' E 135°17'2210.8
2016-Feb-06 23:30N 34°14' E 134°60'6 4.1
2016-Feb-06 22:05N 34°19' E 135°04'610.6
2016-Feb-06 21:31N 34°22' E 135°10'1111.4
2016-Feb-06 20:31N 34°30' E 135°20'6 6.0
2016-Feb-06 19:31N 34°33' E 135°27'0 0.0
2016-Feb-06 18:08N 34°33' E 135°27'0 0.0
2016-Feb-06 17:25N 34°33' E 135°27'0 0.0
2016-Feb-06 16:33N 34°33' E 135°27'0 0.0
2016-Feb-06 13:14N 34°33' E 135°27'3 0.2
2016-Feb-06 01:33N 34°33' E 135°23'1 0.8
2016-Feb-06 00:32N 34°34' E 135°24'2 0.5
2016-Feb-05 21:05N 34°33' E 135°27'0 0.0
2016-Feb-05 20:24N 34°33' E 135°27'0 0.0
2016-Feb-05 19:31N 34°33' E 135°27'0 0.0
2016-Feb-05 18:32N 34°33' E 135°27'2 0.1
2016-Feb-05 02:27N 34°34' E 135°24'2 1.8
2016-Feb-05 01:03N 34°33' E 135°21'1 1.4
2016-Feb-05 00:30N 34°33' E 135°21'1 1.4
2016-Feb-04 23:33N 34°33' E 135°22'3 0.2
2016-Feb-04 07:30N 34°31' E 135°21'13 3.8
2016-Feb-04 04:09N 34°30' E 135°06'5 8.0
2016-Feb-04 03:33N 34°35' E 135°04'1 0.0
2016-Feb-02 20:33N 34°36' E 135°05'7 6.9
2016-Feb-02 19:33N 34°29' E 135°07'1211.0
2016-Feb-02 18:25N 34°18' E 134°60'7 8.4
2016-Feb-02 17:34N 34°11' E 135°01'7 6.8
2016-Feb-02 16:33N 34°13' E 135°09'0 0.0
2016-Feb-02 15:34N 34°13' E 135°09'0 0.0
2016-Feb-02 14:34N 34°13' E 135°09'0 0.0
2016-Feb-02 13:33N 34°13' E 135°09'0 0.0
2016-Feb-02 12:33N 34°13' E 135°09'0 0.0
2016-Feb-02 11:34N 34°13' E 135°09'0 0.0
2016-Feb-02 10:33N 34°13' E 135°09'0 0.0
2016-Feb-02 09:33N 34°13' E 135°09'12 6.1
2016-Feb-02 07:33N 34°25' E 135°05'1414.2
2016-Feb-02 06:32N 34°33' E 135°19'4 3.1
2016-Feb-02 05:17N 34°34' E 135°24'2 2.8
2016-Feb-02 04:31N 34°33' E 135°27'0 0.2
2016-Feb-02 03:24N 34°33' E 135°26'0 0.2
2016-Feb-02 02:13N 34°33' E 135°27'0 0.0
2016-Feb-02 01:07N 34°33' E 135°27'0 0.0
2016-Feb-02 00:03N 34°33' E 135°27'3 6.3
2016-Feb-01 23:33N 34°32' E 135°23'7 7.1
2016-Feb-01 22:33N 34°26' E 135°19'0 0.4
2016-Feb-01 21:33N 34°26' E 135°19'9 9.1
2016-Feb-01 20:33N 34°33' E 135°27'0 0.0
2016-Feb-01 19:33N 34°33' E 135°27'0 0.0
2016-Feb-01 18:33N 34°33' E 135°27'0 0.0
2016-Feb-01 17:32N 34°33' E 135°27'0 0.0
2016-Feb-01 16:33N 34°33' E 135°27'0 0.0
2016-Feb-01 15:33N 34°33' E 135°27'0 0.0
2016-Feb-01 14:33N 34°33' E 135°27'0 0.0
2016-Feb-01 13:33N 34°33' E 135°27'0 0.0
2016-Feb-01 12:33N 34°33' E 135°27'0 0.0
2016-Feb-01 11:33N 34°33' E 135°27'0 0.0
2016-Feb-01 10:33N 34°33' E 135°27'0 0.0
2016-Feb-01 09:33N 34°33' E 135°27'0 0.0
2016-Feb-01 08:33N 34°33' E 135°27'0 0.0
2016-Feb-01 07:33N 34°33' E 135°27'0 0.0
2016-Feb-01 06:33N 34°33' E 135°27'2 1.5
2016-Feb-01 05:12N 34°34' E 135°24'0 0.2
2016-Feb-01 04:33N 34°34' E 135°24'5 5.4
2016-Feb-01 03:33N 34°32' E 135°18'2412.1
2016-Feb-01 01:33N 34°14' E 134°60'2 1.7
2016-Feb-01 00:18N 34°14' E 135°02'810.2
2016-Jan-31 23:33N 34°21' E 135°06'1211.8
2016-Jan-31 22:33N 34°28' E 135°18'9 8.8
2016-Jan-31 21:33N 34°33' E 135°27'0 0.0
2016-Jan-31 20:32N 34°33' E 135°27'0 0.0
2016-Jan-31 19:33N 34°33' E 135°27'0 0.0
2016-Jan-31 18:30N 34°33' E 135°27'0 0.0
2016-Jan-31 17:33N 34°33' E 135°27'0 0.0
2016-Jan-31 16:33N 34°33' E 135°27'0 0.0
2016-Jan-31 15:33N 34°33' E 135°27'0 0.0
2016-Jan-31 14:33N 34°33' E 135°27'  
Track history (hours):
 
Tides and Currents Weather Stations Pressure Air Temp Water Temp Dewpoint Dewpoint Depression Visibility Wind Speed Wind Dir Waves Ship Positions

Kasagimaru

Last reported at 2016-Feb-10 14:24 UTC. Time now 2016-Feb-10 17:45 UTC.
Position N 34°33' E 135°27'.

Length 42 m; draft 3.5 m.

Type: Tug. MMSI: 431300268.

Date/timePositionNaut miles runAvg speedWind from/ knotsBaromVisibWave heightAir tempDewpointWater temp
2016-Feb-10 14:24N 34°33' E 135°27'0 0.0
2016-Feb-10 12:33N 34°33' E 135°27'0 0.0
2016-Feb-10 11:33N 34°33' E 135°27'0 0.0
2016-Feb-10 10:34N 34°33' E 135°27'0 0.0
2016-Feb-10 08:15N 34°33' E 135°27'0 0.0
2016-Feb-10 07:30N 34°33' E 135°27'0 0.1
2016-Feb-10 06:28N 34°33' E 135°27'4 4.0
2016-Feb-10 05:28N 34°37' E 135°24'5 1.6
2016-Feb-10 02:07N 34°31' E 135°24'0 0.0
2016-Feb-10 01:23N 34°31' E 135°24'0 0.0
2016-Feb-10 00:31N 34°31' E 135°24'0 0.0
2016-Feb-09 23:21N 34°31' E 135°24'0 0.6
2016-Feb-09 22:33N 34°32' E 135°24'1 1.4
2016-Feb-09 21:33N 34°32' E 135°23'2 0.1
2016-Feb-09 04:19N 34°33' E 135°24'1011.8
2016-Feb-09 03:30N 34°26' E 135°17'1212.2
2016-Feb-09 02:29N 34°19' E 135°04'4 0.2
2016-Feb-08 05:33N 34°22' E 135°00'1515.0
2016-Feb-08 04:33N 34°31' E 135°15'9 8.8
2016-Feb-08 03:33N 34°33' E 135°25'1 0.9
2016-Feb-08 02:06N 34°33' E 135°27'0 0.0
2016-Feb-08 01:33N 34°33' E 135°27'0 0.0
2016-Feb-08 00:32N 34°33' E 135°27'0 0.0
2016-Feb-07 23:33N 34°33' E 135°27'0 0.0
2016-Feb-07 22:33N 34°33' E 135°27'0 0.0
2016-Feb-07 21:33N 34°33' E 135°27'0 0.0
2016-Feb-07 20:33N 34°33' E 135°27'0 0.0
2016-Feb-07 19:33N 34°33' E 135°27'0 0.0
2016-Feb-07 18:33N 34°33' E 135°27'0 0.0
2016-Feb-07 17:33N 34°33' E 135°27'0 0.0
2016-Feb-07 16:33N 34°33' E 135°27'0 0.0
2016-Feb-07 15:33N 34°33' E 135°27'0 0.0
2016-Feb-07 14:33N 34°33' E 135°27'0 0.0
2016-Feb-07 13:31N 34°33' E 135°27'0 0.0
2016-Feb-07 12:33N 34°33' E 135°27'0 0.0
2016-Feb-07 11:33N 34°33' E 135°27'0 0.0
2016-Feb-07 10:33N 34°33' E 135°27'0 0.0
2016-Feb-07 08:21N 34°33' E 135°27'5 6.7
2016-Feb-07 07:33N 34°38' E 135°23'3 2.6
2016-Feb-07 06:33N 34°39' E 135°26'3 2.7
2016-Feb-07 05:30N 34°37' E 135°23'4 1.8
2016-Feb-07 03:10N 34°33' E 135°25'1 1.4
2016-Feb-07 02:32N 34°33' E 135°24'6 6.2
2016-Feb-07 01:33N 34°32' E 135°17'2210.8
2016-Feb-06 23:30N 34°14' E 134°60'6 4.1
2016-Feb-06 22:05N 34°19' E 135°04'610.6
2016-Feb-06 21:31N 34°22' E 135°10'1111.4
2016-Feb-06 20:31N 34°30' E 135°20'6 6.0
2016-Feb-06 19:31N 34°33' E 135°27'0 0.0
2016-Feb-06 18:08N 34°33' E 135°27'0 0.0
2016-Feb-06 17:25N 34°33' E 135°27'0 0.0
2016-Feb-06 16:33N 34°33' E 135°27'0 0.0
2016-Feb-06 13:14N 34°33' E 135°27'3 0.2
2016-Feb-06 01:33N 34°33' E 135°23'1 0.8
2016-Feb-06 00:32N 34°34' E 135°24'2 0.5
2016-Feb-05 21:05N 34°33' E 135°27'0 0.0
2016-Feb-05 20:24N 34°33' E 135°27'0 0.0
2016-Feb-05 19:31N 34°33' E 135°27'0 0.0
2016-Feb-05 18:32N 34°33' E 135°27'2 0.1
2016-Feb-05 02:27N 34°34' E 135°24'2 1.8
2016-Feb-05 01:03N 34°33' E 135°21'1 1.4
2016-Feb-05 00:30N 34°33' E 135°21'1 1.4
2016-Feb-04 23:33N 34°33' E 135°22'3 0.2
2016-Feb-04 07:30N 34°31' E 135°21'13 3.8
2016-Feb-04 04:09N 34°30' E 135°06'5 8.0
2016-Feb-04 03:33N 34°35' E 135°04'1 0.0
2016-Feb-02 20:33N 34°36' E 135°05'7 6.9
2016-Feb-02 19:33N 34°29' E 135°07'1211.0
2016-Feb-02 18:25N 34°18' E 134°60'7 8.4
2016-Feb-02 17:34N 34°11' E 135°01'7 6.8
2016-Feb-02 16:33N 34°13' E 135°09'0 0.0
2016-Feb-02 15:34N 34°13' E 135°09'0 0.0
2016-Feb-02 14:34N 34°13' E 135°09'0 0.0
2016-Feb-02 13:33N 34°13' E 135°09'0 0.0
2016-Feb-02 12:33N 34°13' E 135°09'0 0.0
2016-Feb-02 11:34N 34°13' E 135°09'0 0.0
2016-Feb-02 10:33N 34°13' E 135°09'0 0.0
2016-Feb-02 09:33N 34°13' E 135°09'12 6.1
2016-Feb-02 07:33N 34°25' E 135°05'1414.2
2016-Feb-02 06:32N 34°33' E 135°19'4 3.1
2016-Feb-02 05:17N 34°34' E 135°24'2 2.8
2016-Feb-02 04:31N 34°33' E 135°27'0 0.2
2016-Feb-02 03:24N 34°33' E 135°26'0 0.2
2016-Feb-02 02:13N 34°33' E 135°27'0 0.0
2016-Feb-02 01:07N 34°33' E 135°27'0 0.0
2016-Feb-02 00:03N 34°33' E 135°27'3 6.3
2016-Feb-01 23:33N 34°32' E 135°23'7 7.1
2016-Feb-01 22:33N 34°26' E 135°19'0 0.4
2016-Feb-01 21:33N 34°26' E 135°19'9 9.1
2016-Feb-01 20:33N 34°33' E 135°27'0 0.0
2016-Feb-01 19:33N 34°33' E 135°27'0 0.0
2016-Feb-01 18:33N 34°33' E 135°27'0 0.0
2016-Feb-01 17:32N 34°33' E 135°27'0 0.0
2016-Feb-01 16:33N 34°33' E 135°27'0 0.0
2016-Feb-01 15:33N 34°33' E 135°27'0 0.0
2016-Feb-01 14:33N 34°33' E 135°27'0 0.0
2016-Feb-01 13:33N 34°33' E 135°27'0 0.0
2016-Feb-01 12:33N 34°33' E 135°27'0 0.0
2016-Feb-01 11:33N 34°33' E 135°27'0 0.0
2016-Feb-01 10:33N 34°33' E 135°27'0 0.0
2016-Feb-01 09:33N 34°33' E 135°27'0 0.0
2016-Feb-01 08:33N 34°33' E 135°27'0 0.0
2016-Feb-01 07:33N 34°33' E 135°27'0 0.0
2016-Feb-01 06:33N 34°33' E 135°27'2 1.5
2016-Feb-01 05:12N 34°34' E 135°24'0 0.2
2016-Feb-01 04:33N 34°34' E 135°24'5 5.4
2016-Feb-01 03:33N 34°32' E 135°18'2412.1
2016-Feb-01 01:33N 34°14' E 134°60'2 1.7
2016-Feb-01 00:18N 34°14' E 135°02'810.2
2016-Jan-31 23:33N 34°21' E 135°06'1211.8
2016-Jan-31 22:33N 34°28' E 135°18'9 8.8
2016-Jan-31 21:33N 34°33' E 135°27'0 0.0
2016-Jan-31 20:32N 34°33' E 135°27'0 0.0
2016-Jan-31 19:33N 34°33' E 135°27'0 0.0
2016-Jan-31 18:30N 34°33' E 135°27'0 0.0
2016-Jan-31 17:33N 34°33' E 135°27'0 0.0
2016-Jan-31 16:33N 34°33' E 135°27'0 0.0
2016-Jan-31 15:33N 34°33' E 135°27'0 0.0
2016-Jan-31 14:33N 34°33' E 135°27'  

Dump ship's entire track history